Time;durP1;ratioP1;P1;durP2;ratioP2;P2;SDS_P1;SDS_P2;PMS_P1;PMS_P2;Temp;Humidity;BMP_temperature;BMP_pressure;BME280_temperature;BME280_humidity;BME280_pressure;Samples;Min_cycle;Max_cycle;Signal;HPM_P1;HPM_P2
2023/05/28 00:02:14;;;;;;;2.10;1.10;;;;;;;;;;5024100;28;59188;-64
2023/05/28 00:04:39;;;;;;;1.00;0.90;;;;;;;;;;5025465;28;59693;-64
2023/05/28 00:07:05;;;;;;;1.17;1.08;;;;;;;;;;5026176;28;59263;-66
2023/05/28 00:09:30;;;;;;;2.50;0.93;;;;;;;;;;5025043;28;59552;-64
2023/05/28 00:11:56;;;;;;;1.47;1.20;;;;;;;;;;5019225;28;59338;-66
2023/05/28 00:14:21;;;;;;;1.90;1.38;;;;;;;;;;5023756;28;59665;-64
2023/05/28 00:16:47;;;;;;;1.20;1.10;;;;;;;;;;5025399;28;58890;-67
2023/05/28 00:19:12;;;;;;;1.20;1.00;;;;;;;;;;5022500;28;60842;-66
2023/05/28 00:21:37;;;;;;;0.90;0.90;;;;;;;;;;5025483;28;59238;-65
2023/05/28 00:24:03;;;;;;;1.03;0.93;;;;;;;;;;5024853;28;59293;-66
2023/05/28 00:26:28;;;;;;;1.02;0.93;;;;;;;;;;5024905;28;61050;-65
2023/05/28 00:28:54;;;;;;;1.67;1.45;;;;;;;;;;5025942;28;59052;-64
2023/05/28 00:31:19;;;;;;;1.13;1.03;;;;;;;;;;5027386;28;59605;-63
2023/05/28 00:33:44;;;;;;;2.13;1.00;;;;;;;;;;5025117;28;59520;-65
2023/05/28 00:36:10;;;;;;;1.98;1.00;;;;;;;;;;5026514;28;59239;-65
2023/05/28 00:38:35;;;;;;;1.20;0.90;;;;;;;;;;5025924;28;59069;-68
2023/05/28 00:41:00;;;;;;;1.08;0.80;;;;;;;;;;5026149;28;59698;-67
2023/05/28 00:43:26;;;;;;;1.15;1.05;;;;;;;;;;5024879;28;59239;-60
2023/05/28 00:45:51;;;;;;;1.05;0.95;;;;;;;;;;5025449;28;60669;-63
2023/05/28 00:48:16;;;;;;;1.07;0.83;;;;;;;;;;5026272;28;59442;-64
2023/05/28 00:50:42;;;;;;;4.47;1.10;;;;;;;;;;5026844;28;59817;-62
2023/05/28 00:53:07;;;;;;;6.47;1.30;;;;;;;;;;5022971;28;59634;-62
2023/05/28 00:55:33;;;;;;;1.88;0.85;;;;;;;;;;5024189;28;59165;-66
2023/05/28 00:58:05;;;;;;;2.08;0.98;;;;;;;;;;5024857;28;60916;-64
2023/05/28 01:00:30;;;;;;;1.05;1.05;;;;;;;;;;5023886;28;59393;-65
2023/05/28 01:02:55;;;;;;;1.23;1.00;;;;;;;;;;5024180;28;59156;-64
2023/05/28 01:05:20;;;;;;;0.97;0.90;;;;;;;;;;5026223;28;59208;-65
2023/05/28 01:07:46;;;;;;;0.90;0.90;;;;;;;;;;5024548;28;59278;-66
2023/05/28 01:10:11;;;;;;;1.27;1.00;;;;;;;;;;5024335;28;59729;-65
2023/05/28 01:12:38;;;;;;;0.82;0.82;;;;;;;;;;5025226;28;59604;-66
2023/05/28 01:15:03;;;;;;;1.10;1.00;;;;;;;;;;5023908;28;59560;-62
2023/05/28 01:17:29;;;;;;;0.80;0.80;;;;;;;;;;5025031;28;59522;-61
2023/05/28 01:19:55;;;;;;;0.90;0.90;;;;;;;;;;5025174;28;59259;-64
2023/05/28 01:22:25;;;;;;;0.77;0.70;;;;;;;;;;5023096;28;59326;-64
2023/05/28 01:24:51;;;;;;;0.93;0.90;;;;;;;;;;5024959;28;59686;-64
2023/05/28 01:27:16;;;;;;;1.35;0.90;;;;;;;;;;5024442;28;59571;-62
2023/05/28 01:29:42;;;;;;;0.70;0.70;;;;;;;;;;5025719;28;58841;-61
2023/05/28 01:32:07;;;;;;;1.33;1.17;;;;;;;;;;5022768;28;59111;-61
2023/05/28 01:34:32;;;;;;;0.73;0.73;;;;;;;;;;5024057;28;59226;-61
2023/05/28 01:37:00;;;;;;;2.67;0.97;;;;;;;;;;5025102;28;59667;-63
2023/05/28 01:39:25;;;;;;;;;;;;;;;;;;5024890;28;59217;-64
2023/05/28 01:41:50;;;;;;;1.45;1.05;;;;;;;;;;5023293;28;59496;-67
2023/05/28 01:44:18;;;;;;;0.97;0.90;;;;;;;;;;5022286;28;59822;-63
2023/05/28 01:46:45;;;;;;;0.90;0.80;;;;;;;;;;5023975;28;59561;-63
2023/05/28 01:49:10;;;;;;;0.50;0.50;;;;;;;;;;5024665;28;59234;-65
2023/05/28 01:51:36;;;;;;;2.17;0.73;;;;;;;;;;5025980;28;59772;-60
2023/05/28 01:54:01;;;;;;;1.15;0.80;;;;;;;;;;5022437;28;59291;-64
2023/05/28 01:56:26;;;;;;;0.93;0.93;;;;;;;;;;5024335;28;59163;-63
2023/05/28 01:58:51;;;;;;;0.98;0.88;;;;;;;;;;5022897;28;59278;-62
2023/05/28 02:01:28;;;;;;;0.73;0.70;;;;;;;;;;5024447;28;59254;-65
2023/05/28 02:03:54;;;;;;;1.85;0.93;;;;;;;;;;5023514;28;59048;-64
2023/05/28 02:06:19;;;;;;;0.73;0.73;;;;;;;;;;5021082;28;59190;-62
2023/05/28 02:08:44;;;;;;;0.93;0.93;;;;;;;;;;5021970;28;59608;-64
2023/05/28 02:11:09;;;;;;;1.47;1.13;;;;;;;;;;5020417;28;59547;-61
2023/05/28 02:13:34;;;;;;;0.68;0.68;;;;;;;;;;5022567;28;59205;-62
2023/05/28 02:16:00;;;;;;;0.90;0.77;;;;;;;;;;5025033;28;60384;-62
2023/05/28 02:18:25;;;;;;;1.00;0.70;;;;;;;;;;5023826;28;59140;-60
2023/05/28 02:20:50;;;;;;;0.97;0.83;;;;;;;;;;5022635;28;59172;-64
2023/05/28 02:23:15;;;;;;;1.17;0.77;;;;;;;;;;5025158;28;59509;-61
2023/05/28 02:25:40;;;;;;;0.60;0.60;;;;;;;;;;5022561;28;59511;-68
2023/05/28 02:28:05;;;;;;;1.00;1.00;;;;;;;;;;5024464;28;59388;-63
2023/05/28 02:30:31;;;;;;;0.55;0.55;;;;;;;;;;5024325;28;59132;-64
2023/05/28 02:32:56;;;;;;;1.73;0.63;;;;;;;;;;5023228;28;59536;-65
2023/05/28 02:35:22;;;;;;;1.55;0.50;;;;;;;;;;5022371;28;59199;-65
2023/05/28 02:37:48;;;;;;;0.80;0.80;;;;;;;;;;5022393;28;59892;-65
2023/05/28 02:40:13;;;;;;;0.50;0.50;;;;;;;;;;5021401;28;59706;-69
2023/05/28 02:42:38;;;;;;;0.70;0.70;;;;;;;;;;5023360;28;61205;-63
2023/05/28 02:45:04;;;;;;;0.70;0.65;;;;;;;;;;5023046;28;59398;-63
2023/05/28 02:47:29;;;;;;;1.17;1.08;;;;;;;;;;5027581;28;59220;-66
2023/05/28 02:49:54;;;;;;;0.80;0.80;;;;;;;;;;5028057;28;59729;-64
2023/05/28 02:52:20;;;;;;;0.87;0.80;;;;;;;;;;5026996;28;60242;-64
2023/05/28 02:54:45;;;;;;;4.22;0.60;;;;;;;;;;5027792;28;59702;-64
2023/05/28 02:57:11;;;;;;;0.50;0.50;;;;;;;;;;5027946;28;59650;-64
2023/05/28 02:59:36;;;;;;;0.82;0.70;;;;;;;;;;5026298;28;59188;-64
2023/05/28 03:02:02;;;;;;;1.05;0.80;;;;;;;;;;5021986;28;59108;-65
2023/05/28 03:04:27;;;;;;;0.75;0.75;;;;;;;;;;5018987;28;59554;-64
2023/05/28 03:06:52;;;;;;;0.70;0.57;;;;;;;;;;5027102;28;59165;-64
2023/05/28 03:09:17;;;;;;;1.03;0.67;;;;;;;;;;5026349;28;59644;-64
2023/05/28 03:11:42;;;;;;;3.35;1.52;;;;;;;;;;5024734;28;59567;-65
2023/05/28 03:14:07;;;;;;;0.60;0.60;;;;;;;;;;5020430;28;59239;-63
2023/05/28 03:16:36;;;;;;;1.00;0.90;;;;;;;;;;5018464;28;59484;-65
2023/05/28 03:19:01;;;;;;;0.57;0.57;;;;;;;;;;5024248;28;59800;-64
2023/05/28 03:21:26;;;;;;;0.70;0.70;;;;;;;;;;5024610;28;59300;-64
2023/05/28 03:23:51;;;;;;;0.85;0.60;;;;;;;;;;5024196;28;59202;-64
2023/05/28 03:26:16;;;;;;;1.02;0.70;;;;;;;;;;5020774;28;59457;-64
2023/05/28 03:28:41;;;;;;;1.05;0.77;;;;;;;;;;5018261;28;59647;-64
2023/05/28 03:31:07;;;;;;;0.50;0.43;;;;;;;;;;5023656;28;59456;-64
2023/05/28 03:33:32;;;;;;;0.90;0.80;;;;;;;;;;5024288;28;59159;-64
2023/05/28 03:35:57;;;;;;;1.10;0.65;;;;;;;;;;5026321;28;59580;-64
2023/05/28 03:38:22;;;;;;;1.13;0.63;;;;;;;;;;5021018;28;59537;-64
2023/05/28 03:40:47;;;;;;;0.70;0.60;;;;;;;;;;5019321;28;59355;-64
2023/05/28 03:43:13;;;;;;;0.90;0.90;;;;;;;;;;5022303;28;59556;-64
2023/05/28 03:45:38;;;;;;;0.70;0.50;;;;;;;;;;5023090;28;59303;-64
2023/05/28 03:48:03;;;;;;;0.70;0.40;;;;;;;;;;5023867;28;60723;-64
2023/05/28 03:50:28;;;;;;;0.57;0.57;;;;;;;;;;5015559;28;59263;-64
2023/05/28 03:52:53;;;;;;;1.10;0.65;;;;;;;;;;5019081;28;59302;-65
2023/05/28 03:55:18;;;;;;;1.37;1.10;;;;;;;;;;5023079;28;59631;-65
2023/05/28 03:57:44;;;;;;;2.43;1.00;;;;;;;;;;5023233;28;59921;-63
2023/05/28 04:00:09;;;;;;;0.70;0.70;;;;;;;;;;5023517;28;60882;-65
2023/05/28 04:02:35;;;;;;;0.43;0.43;;;;;;;;;;5015999;28;59529;-64
2023/05/28 04:05:00;;;;;;;1.55;0.65;;;;;;;;;;5017181;28;59531;-61
2023/05/28 04:07:25;;;;;;;0.87;0.80;;;;;;;;;;5023349;28;59615;-63
2023/05/28 04:09:51;;;;;;;0.50;0.50;;;;;;;;;;5025351;28;58977;-60
2023/05/28 04:12:16;;;;;;;0.75;0.75;;;;;;;;;;5024799;28;59489;-65
2023/05/28 04:14:41;;;;;;;0.98;0.88;;;;;;;;;;5016446;28;59171;-65
2023/05/28 04:17:07;;;;;;;0.77;0.77;;;;;;;;;;5017606;28;59186;-65
2023/05/28 04:19:32;;;;;;;1.70;0.98;;;;;;;;;;5026071;28;59218;-64
2023/05/28 04:21:57;;;;;;;1.33;1.17;;;;;;;;;;5028049;28;59213;-65
2023/05/28 04:24:22;;;;;;;0.52;0.52;;;;;;;;;;5026181;28;59067;-64
2023/05/28 04:26:47;;;;;;;0.87;0.70;;;;;;;;;;5022107;28;59077;-64
2023/05/28 04:29:15;;;;;;;0.85;0.73;;;;;;;;;;5008319;28;59576;-65
2023/05/28 04:31:40;;;;;;;1.02;0.93;;;;;;;;;;5014585;28;59501;-65
2023/05/28 04:34:06;;;;;;;1.10;1.00;;;;;;;;;;5013416;28;59785;-64
2023/05/28 04:36:33;;;;;;;1.07;0.67;;;;;;;;;;5015752;28;58879;-65
2023/05/28 04:39:01;;;;;;;0.63;0.55;;;;;;;;;;5010492;28;59602;-62
2023/05/28 04:41:26;;;;;;;0.60;0.50;;;;;;;;;;5020409;28;60013;-64
2023/05/28 04:43:51;;;;;;;1.17;1.07;;;;;;;;;;5014665;28;59227;-64
2023/05/28 04:46:16;;;;;;;0.75;0.60;;;;;;;;;;5015025;28;59226;-64
2023/05/28 04:48:41;;;;;;;0.97;0.73;;;;;;;;;;5016694;28;59239;-64
2023/05/28 04:51:07;;;;;;;1.35;0.90;;;;;;;;;;5012452;28;59086;-64
2023/05/28 04:53:33;;;;;;;0.75;0.75;;;;;;;;;;5016601;28;59029;-64
2023/05/28 04:55:58;;;;;;;0.70;0.60;;;;;;;;;;5013022;28;60677;-62
2023/05/28 04:58:23;;;;;;;0.83;0.67;;;;;;;;;;5017077;28;59180;-64
2023/05/28 05:00:49;;;;;;;0.60;0.60;;;;;;;;;;5018639;28;59608;-64
2023/05/28 05:03:14;;;;;;;0.60;0.60;;;;;;;;;;5011833;28;59224;-64
2023/05/28 05:05:40;;;;;;;0.90;0.85;;;;;;;;;;5015317;28;59222;-64
2023/05/28 05:08:05;;;;;;;0.70;0.70;;;;;;;;;;5018607;28;59551;-65
2023/05/28 05:10:30;;;;;;;0.80;0.60;;;;;;;;;;5020025;28;59434;-64
2023/05/28 05:12:55;;;;;;;0.70;0.70;;;;;;;;;;5020951;28;59274;-65
2023/05/28 05:15:20;;;;;;;0.57;0.57;;;;;;;;;;5018373;28;59272;-65
2023/05/28 05:17:46;;;;;;;1.98;0.80;;;;;;;;;;5016836;28;59243;-64
2023/05/28 05:20:12;;;;;;;1.27;0.80;;;;;;;;;;5019695;28;59542;-64
2023/05/28 05:22:37;;;;;;;1.17;0.50;;;;;;;;;;5010964;28;59490;-64
2023/05/28 05:25:03;;;;;;;1.27;0.63;;;;;;;;;;5012711;28;58548;-65
2023/05/28 05:27:28;;;;;;;0.70;0.70;;;;;;;;;;5010565;28;59183;-65
2023/05/28 05:29:53;;;;;;;0.50;0.40;;;;;;;;;;5009178;28;59150;-64
2023/05/28 05:32:18;;;;;;;0.50;0.50;;;;;;;;;;5020719;28;59082;-64
2023/05/28 05:34:43;;;;;;;1.15;1.00;;;;;;;;;;5016850;28;59645;-64
2023/05/28 05:37:09;;;;;;;1.00;1.00;;;;;;;;;;5018128;28;59561;-65
2023/05/28 05:39:34;;;;;;;0.83;0.83;;;;;;;;;;5013725;28;60296;-64
2023/05/28 05:41:59;;;;;;;0.98;0.88;;;;;;;;;;5011696;28;59420;-64
2023/05/28 05:44:24;;;;;;;1.37;1.00;;;;;;;;;;5014903;28;59057;-64
2023/05/28 05:46:49;;;;;;;0.73;0.60;;;;;;;;;;5012691;28;59660;-63
2023/05/28 05:49:15;;;;;;;0.70;0.70;;;;;;;;;;5012434;28;59214;-64
2023/05/28 05:51:40;;;;;;;1.30;0.80;;;;;;;;;;5010796;28;59200;-64
2023/05/28 05:54:05;;;;;;;0.70;0.70;;;;;;;;;;5014311;28;59053;-64
2023/05/28 05:56:30;;;;;;;1.13;0.70;;;;;;;;;;5019491;28;59194;-64
2023/05/28 05:58:57;;;;;;;2.10;1.40;;;;;;;;;;5015226;28;59838;-64
2023/05/28 06:01:22;;;;;;;0.80;0.70;;;;;;;;;;5015971;28;59336;-64
2023/05/28 06:03:47;;;;;;;0.90;0.90;;;;;;;;;;5016028;28;59225;-64
2023/05/28 06:06:13;;;;;;;0.70;0.70;;;;;;;;;;5014052;28;59728;-64
2023/05/28 06:08:38;;;;;;;0.40;0.40;;;;;;;;;;5016951;28;59226;-64
2023/05/28 06:11:03;;;;;;;1.23;0.83;;;;;;;;;;5011021;28;59335;-64
2023/05/28 06:13:28;;;;;;;0.50;0.50;;;;;;;;;;5014272;28;59288;-64
2023/05/28 06:15:54;;;;;;;1.03;0.90;;;;;;;;;;5019691;28;58846;-64
2023/05/28 06:18:19;;;;;;;0.80;0.80;;;;;;;;;;5014692;28;59167;-65
2023/05/28 06:20:45;;;;;;;0.45;0.40;;;;;;;;;;5014860;28;59117;-64
2023/05/28 06:23:10;;;;;;;1.98;0.95;;;;;;;;;;5010676;28;59356;-65
2023/05/28 06:25:37;;;;;;;0.70;0.70;;;;;;;;;;5014383;28;59152;-64
2023/05/28 06:28:02;;;;;;;0.98;0.80;;;;;;;;;;5012877;28;59605;-65
2023/05/28 06:30:27;;;;;;;0.70;0.70;;;;;;;;;;5013478;28;59701;-65
2023/05/28 06:32:52;;;;;;;0.63;0.60;;;;;;;;;;5010407;28;59625;-64
2023/05/28 06:35:18;;;;;;;0.85;0.60;;;;;;;;;;5013643;28;59312;-64
2023/05/28 06:37:43;;;;;;;0.90;0.90;;;;;;;;;;5014315;28;59266;-62
2023/05/28 06:40:10;;;;;;;0.90;0.90;;;;;;;;;;5015676;28;59409;-65
2023/05/28 06:42:35;;;;;;;0.50;0.47;;;;;;;;;;5014092;28;59401;-64
2023/05/28 06:45:00;;;;;;;0.60;0.60;;;;;;;;;;5014788;28;59230;-64
2023/05/28 06:47:26;;;;;;;1.00;0.90;;;;;;;;;;5014214;28;59310;-64
2023/05/28 06:49:51;;;;;;;0.70;0.70;;;;;;;;;;5017928;28;59602;-64
2023/05/28 06:52:18;;;;;;;0.70;0.70;;;;;;;;;;5017785;28;59044;-65
2023/05/28 06:54:44;;;;;;;0.70;0.70;;;;;;;;;;5012926;28;59579;-64
2023/05/28 06:57:09;;;;;;;0.73;0.73;;;;;;;;;;5006836;28;59324;-64
2023/05/28 06:59:34;;;;;;;1.35;0.50;;;;;;;;;;5014856;28;59529;-64
2023/05/28 07:02:00;;;;;;;0.70;0.70;;;;;;;;;;5014457;28;59227;-62
2023/05/28 07:04:25;;;;;;;0.70;0.70;;;;;;;;;;5018099;28;59385;-64
2023/05/28 07:06:50;;;;;;;1.50;1.20;;;;;;;;;;5015217;28;59247;-64
2023/05/28 07:09:15;;;;;;;0.70;0.63;;;;;;;;;;5016739;28;59112;-64
2023/05/28 07:11:40;;;;;;;1.23;0.90;;;;;;;;;;5016136;28;59416;-65
2023/05/28 07:14:05;;;;;;;1.37;0.90;;;;;;;;;;5009288;28;59565;-65
2023/05/28 07:16:30;;;;;;;2.00;1.05;;;;;;;;;;5016126;28;59683;-64
2023/05/28 07:18:56;;;;;;;1.53;1.20;;;;;;;;;;5012907;28;59080;-64
2023/05/28 07:21:21;;;;;;;3.72;1.58;;;;;;;;;;5013869;28;59443;-64
2023/05/28 07:23:46;;;;;;;1.00;0.80;;;;;;;;;;5012363;28;59616;-64
2023/05/28 07:26:11;;;;;;;4.35;1.77;;;;;;;;;;5005598;28;59251;-64
2023/05/28 07:28:37;;;;;;;2.33;1.53;;;;;;;;;;5011398;28;59113;-64
2023/05/28 07:31:02;;;;;;;1.53;1.33;;;;;;;;;;5012975;28;59728;-65
2023/05/28 07:33:27;;;;;;;4.83;1.70;;;;;;;;;;5013334;28;59435;-65
2023/05/28 07:35:52;;;;;;;5.23;2.30;;;;;;;;;;5017439;28;59017;-64
2023/05/28 07:38:17;;;;;;;2.53;1.40;;;;;;;;;;5009463;28;59625;-64
2023/05/28 07:40:43;;;;;;;3.80;1.73;;;;;;;;;;5013523;28;59318;-64
2023/05/28 07:43:08;;;;;;;5.93;2.00;;;;;;;;;;5014540;28;59356;-63
2023/05/28 07:45:33;;;;;;;4.57;1.83;;;;;;;;;;5014827;28;59159;-64
2023/05/28 07:47:58;;;;;;;4.18;1.88;;;;;;;;;;5012815;28;59267;-61
2023/05/28 07:50:24;;;;;;;6.93;1.70;;;;;;;;;;5014432;28;59442;-64
2023/05/28 07:52:49;;;;;;;3.07;1.60;;;;;;;;;;5013826;28;63475;-64
2023/05/28 07:55:14;;;;;;;4.00;1.93;;;;;;;;;;5015039;28;59528;-64
2023/05/28 07:57:39;;;;;;;4.43;2.33;;;;;;;;;;5012278;28;59708;-64
2023/05/28 08:00:06;;;;;;;2.55;1.90;;;;;;;;;;5019531;28;59290;-64
2023/05/28 08:02:32;;;;;;;4.90;2.55;;;;;;;;;;5011711;28;59483;-65
2023/05/28 08:04:57;;;;;;;2.72;1.70;;;;;;;;;;5016034;28;59603;-64
2023/05/28 08:07:22;;;;;;;3.13;2.07;;;;;;;;;;5011754;28;59826;-64
2023/05/28 08:09:47;;;;;;;3.47;1.70;;;;;;;;;;5019668;28;59245;-64
2023/05/28 08:12:12;;;;;;;3.10;1.80;;;;;;;;;;5016142;28;59428;-64
2023/05/28 08:14:38;;;;;;;3.23;2.17;;;;;;;;;;5010061;28;59299;-64
2023/05/28 08:17:03;;;;;;;3.00;1.80;;;;;;;;;;5019511;28;59287;-65
2023/05/28 08:19:28;;;;;;;4.40;1.60;;;;;;;;;;5017450;28;59369;-62
2023/05/28 08:21:53;;;;;;;2.80;1.90;;;;;;;;;;5014386;28;59069;-65
2023/05/28 08:24:20;;;;;;;3.40;2.13;;;;;;;;;;5015400;28;60133;-64
2023/05/28 08:26:45;;;;;;;4.15;1.88;;;;;;;;;;5012588;28;59214;-65
2023/05/28 08:29:10;;;;;;;2.80;1.60;;;;;;;;;;5012437;28;59351;-64
2023/05/28 08:31:35;;;;;;;2.60;2.00;;;;;;;;;;5012825;28;59564;-64
2023/05/28 08:34:01;;;;;;;3.13;2.10;;;;;;;;;;5010080;28;59080;-64
2023/05/28 08:36:26;;;;;;;2.37;1.40;;;;;;;;;;5015168;28;59440;-64
2023/05/28 08:38:51;;;;;;;5.13;1.77;;;;;;;;;;5010534;28;59166;-65
2023/05/28 08:41:17;;;;;;;3.20;2.28;;;;;;;;;;5015107;28;59558;-64
2023/05/28 08:43:42;;;;;;;3.03;1.60;;;;;;;;;;5015418;28;59653;-63
2023/05/28 08:46:07;;;;;;;4.03;2.00;;;;;;;;;;5011706;28;59206;-64
2023/05/28 08:48:33;;;;;;;2.57;1.87;;;;;;;;;;5009081;28;59138;-64
2023/05/28 08:50:58;;;;;;;2.35;1.55;;;;;;;;;;5009226;28;59229;-59
2023/05/28 08:53:29;;;;;;;2.70;1.40;;;;;;;;;;5010969;28;59108;-61
2023/05/28 08:55:54;;;;;;;3.50;1.92;;;;;;;;;;5016814;28;60016;-65
2023/05/28 08:58:19;;;;;;;3.38;1.63;;;;;;;;;;5015037;28;59549;-64
2023/05/28 09:00:45;;;;;;;2.40;1.80;;;;;;;;;;5014473;28;59378;-64
2023/05/28 09:03:10;;;;;;;2.45;1.48;;;;;;;;;;5008333;28;59199;-64
2023/05/28 09:05:37;;;;;;;1.30;1.20;;;;;;;;;;5012138;28;58572;-64
2023/05/28 09:08:05;;;;;;;2.75;1.92;;;;;;;;;;5013465;28;59625;-64
2023/05/28 09:10:30;;;;;;;2.72;1.45;;;;;;;;;;5016876;28;59301;-65
2023/05/28 09:12:57;;;;;;;1.83;1.50;;;;;;;;;;5012698;28;59391;-64
2023/05/28 09:15:22;;;;;;;2.05;1.88;;;;;;;;;;5010122;28;59667;-64
2023/05/28 09:17:47;;;;;;;2.53;1.67;;;;;;;;;;5012123;28;59372;-65
2023/05/28 09:20:13;;;;;;;3.67;1.90;;;;;;;;;;5015441;28;59291;-64
2023/05/28 09:22:38;;;;;;;2.97;1.85;;;;;;;;;;5016766;28;60519;-64
2023/05/28 09:25:06;;;;;;;2.17;1.50;;;;;;;;;;5011334;28;58664;-64
2023/05/28 09:27:32;;;;;;;3.58;2.03;;;;;;;;;;5011945;28;59708;-64
2023/05/28 09:30:01;;;;;;;2.65;1.60;;;;;;;;;;5015467;28;58528;-64
2023/05/28 09:32:27;;;;;;;2.65;1.83;;;;;;;;;;5007562;28;59132;-63
2023/05/28 09:34:52;;;;;;;2.08;1.63;;;;;;;;;;5008485;28;59631;-65
2023/05/28 09:37:17;;;;;;;3.53;1.53;;;;;;;;;;5012412;28;59815;-64
2023/05/28 09:39:43;;;;;;;1.75;1.33;;;;;;;;;;5013705;28;59140;-64
2023/05/28 09:42:12;;;;;;;3.25;2.25;;;;;;;;;;5009517;28;59617;-64
2023/05/28 09:44:38;;;;;;;14.43;1.95;;;;;;;;;;5010709;28;59686;-64
2023/05/28 09:47:13;;;;;;;2.78;1.48;;;;;;;;;;5011815;28;59643;-64
2023/05/28 09:49:38;;;;;;;3.97;2.47;;;;;;;;;;5011360;28;59233;-64
2023/05/28 09:52:04;;;;;;;3.05;1.40;;;;;;;;;;5009252;28;59453;-63
2023/05/28 09:54:31;;;;;;;2.35;1.73;;;;;;;;;;5011461;28;59100;-64
2023/05/28 09:57:02;;;;;;;2.83;1.20;;;;;;;;;;5013122;28;59564;-65
2023/05/28 09:59:28;;;;;;;3.17;2.00;;;;;;;;;;5009578;28;59132;-63
2023/05/28 10:01:56;;;;;;;2.85;1.23;;;;;;;;;;5012291;28;59666;-65
2023/05/28 10:04:23;;;;;;;2.22;1.55;;;;;;;;;;5006010;28;59787;-65
2023/05/28 10:06:48;;;;;;;0.97;0.90;;;;;;;;;;5008843;28;59390;-65
2023/05/28 10:09:14;;;;;;;1.63;1.40;;;;;;;;;;5013942;28;59545;-65
2023/05/28 10:11:41;;;;;;;2.33;1.45;;;;;;;;;;5010263;28;59739;-64
2023/05/28 10:14:07;;;;;;;1.92;1.40;;;;;;;;;;5006741;28;60571;-65
2023/05/28 10:16:33;;;;;;;2.78;1.55;;;;;;;;;;5007447;28;59168;-64
2023/05/28 10:18:59;;;;;;;2.00;1.50;;;;;;;;;;5014826;28;59292;-65
2023/05/28 10:21:25;;;;;;;3.65;1.70;;;;;;;;;;5012494;28;59661;-65
2023/05/28 10:23:51;;;;;;;1.20;1.10;;;;;;;;;;5006344;28;59088;-63
2023/05/28 10:26:18;;;;;;;2.72;1.58;;;;;;;;;;5011880;28;59208;-64
2023/05/28 10:28:43;;;;;;;1.30;1.20;;;;;;;;;;5011995;28;59649;-64
2023/05/28 10:31:10;;;;;;;3.00;1.90;;;;;;;;;;5016034;28;59258;-64
2023/05/28 10:33:39;;;;;;;2.85;1.60;;;;;;;;;;5010553;28;62798;-64
2023/05/28 10:36:08;;;;;;;3.08;1.40;;;;;;;;;;5008239;28;59267;-64
2023/05/28 10:38:40;;;;;;;2.60;1.30;;;;;;;;;;5016799;28;58482;-64
2023/05/28 10:41:05;;;;;;;1.02;1.00;;;;;;;;;;5013286;28;59727;-64
2023/05/28 10:43:37;;;;;;;5.23;1.93;;;;;;;;;;5009256;28;59168;-64
2023/05/28 10:46:02;;;;;;;2.30;1.30;;;;;;;;;;5029526;28;58505;-63
2023/05/28 10:48:30;;;;;;;2.23;1.20;;;;;;;;;;5017154;28;59909;-65
2023/05/28 10:51:00;;;;;;;1.30;1.20;;;;;;;;;;5009318;28;59124;-64
2023/05/28 10:53:26;;;;;;;3.22;1.55;;;;;;;;;;5012527;28;60930;-64
2023/05/28 10:55:53;;;;;;;1.45;1.35;;;;;;;;;;5008888;28;59535;-64
2023/05/28 10:58:25;;;;;;;2.80;1.40;;;;;;;;;;5009828;28;59364;-63
2023/05/28 11:00:51;;;;;;;2.03;1.48;;;;;;;;;;5010677;28;59495;-65
2023/05/28 11:03:16;;;;;;;2.38;1.40;;;;;;;;;;5008342;28;59561;-64
2023/05/28 11:05:41;;;;;;;1.23;0.93;;;;;;;;;;5013675;28;59434;-64
2023/05/28 11:08:07;;;;;;;2.13;1.20;;;;;;;;;;5021572;28;59259;-64
2023/05/28 11:10:33;;;;;;;1.35;1.13;;;;;;;;;;5017784;28;59629;-64
2023/05/28 11:12:58;;;;;;;1.35;1.25;;;;;;;;;;5012934;28;59866;-64
2023/05/28 11:15:23;;;;;;;2.10;1.90;;;;;;;;;;5013738;28;59341;-63
2023/05/28 11:17:49;;;;;;;1.63;1.37;;;;;;;;;;5016530;28;59566;-64
2023/05/28 11:20:18;;;;;;;1.92;1.67;;;;;;;;;;5021513;28;59059;-64
2023/05/28 11:22:43;;;;;;;1.45;1.02;;;;;;;;;;5016636;28;59183;-64
2023/05/28 11:25:09;;;;;;;4.13;3.13;;;;;;;;;;5016404;28;59417;-64
2023/05/28 11:27:36;;;;;;;10.68;4.65;;;;;;;;;;5012990;28;64100;-64
2023/05/28 11:30:06;;;;;;;10.13;5.60;;;;;;;;;;5015290;28;59449;-64
2023/05/28 11:32:32;;;;;;;9.88;4.18;;;;;;;;;;5012567;28;59327;-64
2023/05/28 11:34:57;;;;;;;5.40;3.40;;;;;;;;;;5021088;28;59527;-64
2023/05/28 11:37:24;;;;;;;5.37;2.93;;;;;;;;;;5020285;28;59367;-65
2023/05/28 11:39:50;;;;;;;8.70;3.53;;;;;;;;;;5021395;28;61558;-64
2023/05/28 11:42:16;;;;;;;6.35;3.33;;;;;;;;;;5012611;28;59574;-64
2023/05/28 11:44:47;;;;;;;4.88;2.75;;;;;;;;;;5015654;28;59521;-64
2023/05/28 11:47:13;;;;;;;4.63;2.13;;;;;;;;;;5016140;28;61896;-64
2023/05/28 11:49:38;;;;;;;4.43;1.90;;;;;;;;;;5010277;28;59654;-64
2023/05/28 11:52:03;;;;;;;4.80;1.98;;;;;;;;;;5017984;28;59205;-64
2023/05/28 11:54:29;;;;;;;5.50;3.07;;;;;;;;;;5013148;28;60098;-64
2023/05/28 11:56:54;;;;;;;2.60;1.77;;;;;;;;;;5011140;28;59542;-63
2023/05/28 11:59:25;;;;;;;4.80;2.30;;;;;;;;;;5016344;28;59242;-64
2023/05/28 12:01:51;;;;;;;2.92;2.45;;;;;;;;;;5015033;28;59333;-64
2023/05/28 12:04:21;;;;;;;4.28;1.98;;;;;;;;;;5012859;28;59544;-64
2023/05/28 12:06:53;;;;;;;3.15;2.22;;;;;;;;;;5022639;28;59298;-64
2023/05/28 12:09:18;;;;;;;3.55;2.35;;;;;;;;;;5019716;28;59314;-64
2023/05/28 12:11:43;;;;;;;3.15;2.05;;;;;;;;;;5019229;28;59497;-64
2023/05/28 12:14:11;;;;;;;2.43;1.70;;;;;;;;;;5012396;28;61694;-64
2023/05/28 12:16:46;;;;;;;2.85;1.90;;;;;;;;;;5015470;28;59246;-65
2023/05/28 12:19:14;;;;;;;2.50;2.08;;;;;;;;;;5014247;28;59826;-65
2023/05/28 12:21:39;;;;;;;3.33;1.92;;;;;;;;;;5015031;28;59385;-64
2023/05/28 12:24:11;;;;;;;3.50;2.13;;;;;;;;;;5014833;28;59884;-64
2023/05/28 12:26:36;;;;;;;3.63;1.90;;;;;;;;;;5013212;28;59346;-61
2023/05/28 12:29:01;;;;;;;3.38;1.90;;;;;;;;;;5015415;28;59483;-64
2023/05/28 12:31:27;;;;;;;3.03;2.23;;;;;;;;;;5013485;28;59665;-63
2023/05/28 12:33:52;;;;;;;2.13;1.90;;;;;;;;;;5019410;28;59097;-64
2023/05/28 12:36:17;;;;;;;2.42;1.58;;;;;;;;;;5012151;28;59334;-64
2023/05/28 12:38:43;;;;;;;3.88;2.03;;;;;;;;;;5015470;28;59486;-64
2023/05/28 12:41:08;;;;;;;3.95;1.75;;;;;;;;;;5015012;28;59326;-64
2023/05/28 12:43:33;;;;;;;2.20;1.87;;;;;;;;;;5017526;28;59194;-61
2023/05/28 12:45:58;;;;;;;5.10;2.20;;;;;;;;;;5020934;28;59520;-64
2023/05/28 12:48:23;;;;;;;1.88;1.48;;;;;;;;;;5010930;28;59846;-64
2023/05/28 12:50:48;;;;;;;2.33;1.73;;;;;;;;;;5015205;28;59183;-64
2023/05/28 12:53:14;;;;;;;3.47;1.60;;;;;;;;;;5017439;28;59449;-64
2023/05/28 12:55:39;;;;;;;3.87;1.97;;;;;;;;;;5013662;28;59250;-64
2023/05/28 12:58:04;;;;;;;2.45;2.25;;;;;;;;;;5023274;28;59209;-63
2023/05/28 13:00:29;;;;;;;3.80;1.40;;;;;;;;;;5019839;28;59191;-65
2023/05/28 13:02:55;;;;;;;4.75;1.92;;;;;;;;;;5015620;28;59389;-64
2023/05/28 13:05:20;;;;;;;2.50;1.63;;;;;;;;;;5012453;28;59934;-64
2023/05/28 13:07:45;;;;;;;3.05;1.50;;;;;;;;;;5011945;28;59401;-63
2023/05/28 13:10:10;;;;;;;3.75;2.58;;;;;;;;;;5017378;28;59270;-63
2023/05/28 13:12:36;;;;;;;2.90;1.40;;;;;;;;;;5014640;28;59561;-64
2023/05/28 13:15:03;;;;;;;1.98;1.45;;;;;;;;;;5016612;28;59556;-63
2023/05/28 13:17:28;;;;;;;3.70;1.90;;;;;;;;;;5016070;28;59487;-61
2023/05/28 13:19:53;;;;;;;2.43;1.70;;;;;;;;;;5015955;28;59460;-63
2023/05/28 13:22:18;;;;;;;5.50;2.38;;;;;;;;;;5017033;28;59170;-64
2023/05/28 13:24:43;;;;;;;3.40;1.92;;;;;;;;;;5013268;28;61364;-64
2023/05/28 13:27:08;;;;;;;1.97;1.40;;;;;;;;;;5018844;28;59236;-62
2023/05/28 13:29:33;;;;;;;1.35;1.25;;;;;;;;;;5018852;28;59196;-64
2023/05/28 13:31:59;;;;;;;3.22;1.33;;;;;;;;;;5015035;28;60086;-64
2023/05/28 13:34:24;;;;;;;1.83;1.53;;;;;;;;;;5015925;28;59278;-64
2023/05/28 13:36:49;;;;;;;1.40;1.30;;;;;;;;;;5013407;28;59691;-64
2023/05/28 13:39:14;;;;;;;1.60;1.20;;;;;;;;;;5017780;28;59932;-63
2023/05/28 13:41:40;;;;;;;1.73;1.30;;;;;;;;;;5023251;28;59194;-64
2023/05/28 13:44:05;;;;;;;3.38;1.98;;;;;;;;;;5025405;28;59331;-64
2023/05/28 13:46:30;;;;;;;1.50;1.40;;;;;;;;;;5016716;28;59702;-64
2023/05/28 13:48:56;;;;;;;0.88;0.88;;;;;;;;;;5021667;28;59283;-61
2023/05/28 13:51:21;;;;;;;1.45;1.00;;;;;;;;;;5015782;28;59328;-64
2023/05/28 13:53:46;;;;;;;2.05;1.30;;;;;;;;;;5018465;28;59718;-65
2023/05/28 13:56:12;;;;;;;1.52;1.33;;;;;;;;;;5013665;28;59066;-64
2023/05/28 13:58:37;;;;;;;2.55;1.77;;;;;;;;;;5018304;28;59784;-64
2023/05/28 14:01:02;;;;;;;2.63;1.20;;;;;;;;;;5013384;28;59628;-64
2023/05/28 14:03:27;;;;;;;3.77;1.40;;;;;;;;;;5013775;28;59581;-64
2023/05/28 14:05:53;;;;;;;1.90;1.27;;;;;;;;;;5011992;28;59289;-64
2023/05/28 14:08:18;;;;;;;4.13;1.45;;;;;;;;;;5013223;28;59028;-64
2023/05/28 14:10:43;;;;;;;4.80;1.23;;;;;;;;;;5010614;28;60980;-64
2023/05/28 14:13:08;;;;;;;1.77;1.17;;;;;;;;;;5015352;28;59491;-64
2023/05/28 14:15:33;;;;;;;3.53;1.47;;;;;;;;;;5019973;28;59829;-64
2023/05/28 14:17:59;;;;;;;3.00;1.25;;;;;;;;;;5011943;28;59148;-64
2023/05/28 14:20:24;;;;;;;1.77;1.20;;;;;;;;;;5014403;28;59403;-63
2023/05/28 14:22:49;;;;;;;1.33;1.23;;;;;;;;;;5014042;28;59260;-64
2023/05/28 14:25:15;;;;;;;6.97;1.50;;;;;;;;;;5010472;28;60902;-65
2023/05/28 14:27:40;;;;;;;2.35;1.55;;;;;;;;;;5017771;28;59468;-64
2023/05/28 14:30:06;;;;;;;1.63;1.25;;;;;;;;;;5015589;28;61001;-64
2023/05/28 14:32:31;;;;;;;1.48;1.00;;;;;;;;;;5014373;28;59625;-64
2023/05/28 14:34:57;;;;;;;1.25;0.95;;;;;;;;;;5012255;28;59031;-61